Date,TemperatureHighF,TemperatureAvgF,TemperatureLowF,DewpointHighF,DewpointAvgF,DewpointLowF,HumidityHigh,HumidityAvg,HumidityLow,PressureMaxIn,PressureMinIn,WindSpeedMaxMPH,WindSpeedAvgMPH,GustSpeedMaxMPH,PrecipitationSumIn
2013-1-1,36,27,21,19,14,9,75,58,37,30.11,29.97,14,3,14,0.00
2013-1-2,38,24,13,15,8,1,99,55,21,30.13,30.02,8,2,8,0.00
2013-1-3,40,24,15,14,10,4,86,58,32,30.21,30.09,8,1,8,0.00
2013-1-4,42,23,11,17,7,-1,99,56,21,30.20,30.06,6,1,6,0.00
2013-1-5,48,28,16,6,2,-3,53,33,18,30.23,30.11,12,2,12,0.00
2013-1-6,44,28,15,15,7,3,86,44,21,30.24,30.01,5,0,5,0.00
2013-1-7,55,36,26,18,13,8,60,39,22,30.01,29.87,6,1,6,0.00
2013-1-8,51,34,23,15,12,7,61,41,20,30.13,29.88,12,4,12,0.00
2013-1-9,55,36,23,16,12,9,58,39,20,30.28,30.04,9,2,9,0.00
2013-1-10,48,35,22,22,14,10,65,43,24,30.04,29.69,6,1,6,0.00
2013-1-11,41,33,22,24,2,-20,60,30,15,29.84,29.60,20,6,20,0.00
2013-1-12,33,21,12,-5,-26,-55,27,12,1,29.91,29.77,16,2,16,0.00
2013-1-13,32,21,12,2,-22,-60,59,15,1,29.97,29.85,7,1,7,0.00
2013-1-14,33,24,14,33,17,10,100,74,48,30.16,29.84,8,2,8,14.10
2013-1-15,27,17,12,15,-8,-69,99,45,1,30.21,29.97,13,3,13,0.01
2013-1-16,40,26,15,13,3,-18,76,38,17,30.28,30.17,13,2,13,0.01
2013-1-17,55,32,17,18,13,8,93,51,21,30.36,30.25,4,1,4,0.01
2013-1-18,57,36,22,23,17,13,78,47,22,30.27,30.13,5,1,5,0.01
2013-1-19,55,37,25,19,15,10,66,43,20,30.26,30.15,10,2,10,0.01
2013-1-20,60,37,21,17,12,6,67,38,16,30.21,30.08,10,1,10,0.01
2013-1-21,56,36,20,15,10,5,58,36,17,30.21,30.09,10,2,10,0.01
2013-1-22,62,41,25,19,13,2,63,34,12,30.21,30.12,8,2,8,0.01
2013-1-23,63,42,25,17,10,7,54,29,12,30.27,30.17,9,2,9,0.01
2013-1-24,63,46,28,34,16,7,55,32,17,30.21,30.09,12,2,12,0.01
2013-1-25,61,48,38,39,34,28,72,58,43,30.20,30.07,6,1,6,0.01
2013-1-26,57,48,41,48,40,34,86,74,60,30.08,29.86,11,1,11,0.09
2013-1-27,60,48,41,40,36,31,84,63,33,29.95,29.86,15,2,15,0.01
2013-1-28,55,44,36,37,31,16,80,61,36,29.89,29.70,18,4,18,0.01
2013-1-29,36,31,26,21,12,-1,69,47,24,29.91,29.69,25,7,25,0.01
2013-1-30,42,31,22,16,12,3,71,47,27,30.11,29.91,17,5,17,0.01
2013-1-31,53,37,23,22,19,15,85,50,24,30.19,30.09,13,2,13,0.01
2013-2-1,58,40,23,25,19,14,81,46,21,30.19,30.08,10,2,10,0.01
2013-2-2,60,43,29,23,18,13,62,38,21,30.28,30.18,9,2,9,0.01
2013-2-3,52,41,28,28,18,12,58,41,24,30.21,29.93,8,1,8,0.01
2013-2-4,60,44,30,30,24,19,77,47,24,30.05,29.94,12,3,12,0.01
2013-2-5,63,45,33,23,18,14,57,37,17,30.04,29.93,9,2,9,0.01
2013-2-6,61,45,28,27,20,13,59,38,25,29.95,29.82,13,2,13,0.01
2013-2-7,58,45,34,28,21,12,65,41,17,30.08,29.94,13,2,13,0.01
2013-2-8,57,45,32,23,20,15,60,37,24,30.03,29.73,16,3,16,0.01
2013-2-9,48,38,29,21,12,3,57,35,20,29.80,29.63,22,6,22,0.01
2013-2-10,44,33,26,20,12,6,66,44,24,29.90,29.80,14,2,14,0.01
2013-2-11,46,33,20,23,15,-3,83,51,14,29.94,29.83,13,3,13,0.01
2013-2-12,42,31,22,22,11,0,78,46,18,30.08,29.87,15,4,15,0.01
2013-2-13,48,35,24,16,11,7,51,38,24,30.08,29.97,14,5,14,0.01
2013-2-14,52,38,27,18,16,13,62,42,22,30.11,29.98,16,4,16,0.01
2013-2-15,52,39,25,22,12,-1,72,37,12,30.25,30.11,21,3,21,0.01
2013-2-16,61,43,30,14,7,-2,38,24,10,30.30,30.06,11,3,11,0.01
2013-2-17,61,43,25,10,1,-4,31,19,8,30.07,29.69,11,2,11,0.01
2013-2-18,39,36,31,33,-18,-21,100,11,7,30.21,29.98,4,1,4,14.20
2013-2-19,61,42,22,33,0,-34,65,22,7,30.01,29.72,17,3,17,0.00
2013-2-20,50,42,34,33,26,13,75,54,25,29.74,29.52,20,4,20,0.00
2013-2-21,47,34,26,30,23,17,96,67,32,29.84,29.56,14,3,14,0.07
2013-2-22,43,34,28,22,20,10,73,56,29,29.97,29.82,17,3,17,0.00
2013-2-23,49,36,22,17,10,2,67,37,21,29.98,29.68,8,2,8,0.00
2013-2-24,40,33,26,25,15,0,94,50,22,29.83,29.62,20,6,20,0.00
2013-2-25,49,35,23,25,11,0,94,43,14,29.99,29.83,15,3,15,0.06
2013-2-26,46,35,26,12,4,-15,56,29,9,30.00,29.78,23,6,23,0.00
2013-2-27,48,33,20,10,2,-8,65,29,12,30.17,29.99,10,2,10,0.00
2013-2-28,55,38,26,6,-1,-8,28,20,8,30.22,30.11,15,4,15,0.00
2013-3-1,60,44,30,20,12,2,42,27,17,30.27,30.15,14,4,14,0.00
2013-3-2,68,49,34,23,21,18,55,35,18,30.30,30.11,10,2,10,0.00
2013-3-3,66,54,39,23,16,-4,41,25,6,30.11,29.85,14,3,14,0.00
2013-3-4,61,53,44,24,19,15,38,26,17,30.06,29.79,20,4,20,0.00
2013-3-5,63,47,29,22,17,10,62,33,13,30.21,30.05,8,2,8,0.00
2013-3-6,68,54,46,26,22,18,34,29,18,30.10,29.91,12,2,12,0.00
2013-3-7,72,56,36,24,18,13,44,24,13,30.01,29.86,11,2,11,0.00
2013-3-8,60,49,39,41,25,12,83,45,18,29.93,29.75,18,3,18,0.13
2013-3-9,45,38,32,33,23,15,84,56,32,29.92,29.75,15,4,15,0.01
2013-3-10,53,40,29,29,22,14,85,54,25,30.07,29.91,13,2,13,0.00
2013-3-11,63,48,35,20,16,7,46,31,11,30.10,29.94,15,4,15,0.00
2013-3-12,68,52,35,25,21,18,55,32,17,30.17,30.02,13,2,13,0.00
2013-3-13,72,53,34,27,22,15,60,32,16,30.26,30.13,12,2,12,0.00
2013-3-14,78,57,41,25,19,11,42,25,8,30.26,30.12,8,2,8,0.00
2013-3-15,81,60,41,23,16,8,37,19,7,30.14,29.92,7,2,7,0.00
2013-3-16,72,60,51,34,21,12,46,23,15,29.93,29.76,18,4,18,0.00
2013-3-17,69,55,43,35,24,-18,63,38,3,29.88,29.70,21,5,21,0.00
2013-3-20,58,56,56,26,22,19,31,26,22,30.09,29.85,5,1,5,14.47
2013-3-21,71,58,48,32,19,-4,44,25,5,29.85,29.65,24,5,24,0.00
2013-3-22,66,52,36,27,13,5,39,23,11,29.80,29.63,20,3,20,0.00
2013-3-23,50,40,31,27,0,-32,52,23,6,30.01,29.71,27,7,27,0.00
2013-3-24,54,39,24,-1,-19,-59,17,8,1,30.04,29.85,19,4,19,0.00
2013-3-25,57,40,23,10,3,-6,36,21,14,30.11,29.98,19,2,19,0.00
2013-3-26,67,47,29,14,8,3,38,22,11,30.11,29.91,13,3,13,0.00
2013-3-27,72,59,46,17,12,7,24,16,10,30.03,29.93,14,2,14,0.00
2013-3-28,72,61,47,25,16,10,27,17,11,30.08,29.98,18,2,18,0.00
2013-3-29,74,60,46,24,20,14,38,23,12,30.13,30.00,13,2,13,0.00
2013-3-30,73,59,42,26,21,16,40,24,12,30.11,29.95,14,2,14,0.00
2013-3-31,76,61,49,33,28,24,42,29,17,30.07,29.93,9,2,9,0.00
2013-4-1,64,60,33,33,12,8,100,17,11,30.09,29.88,8,1,8,14.47
2013-4-2,65,56,47,28,17,2,43,22,8,29.94,29.79,21,3,21,0.00
2013-4-3,68,52,36,31,25,19,66,39,16,30.06,29.94,14,2,14,0.00
2013-4-4,76,57,37,28,19,9,56,27,8,30.15,30.01,10,1,10,0.00
2013-4-5,77,65,55,20,14,8,20,14,8,30.04,29.80,14,3,14,0.00
2013-4-6,77,63,49,27,21,15,37,21,10,29.97,29.80,14,2,14,0.00
2013-4-7,74,63,48,27,20,14,38,20,10,29.89,29.75,15,3,15,0.00
2013-4-8,76,64,50,28,22,10,36,21,8,29.77,29.43,26,5,26,0.00
2013-4-9,54,45,38,34,30,24,83,56,37,29.81,29.45,17,4,17,0.08
2013-4-10,49,40,34,33,25,19,85,56,38,29.92,29.81,16,3,16,0.01
2013-4-11,64,48,30,30,23,16,64,40,24,29.92,29.78,19,4,19,0.00
2013-4-12,71,57,41,36,28,22,64,36,17,29.91,29.80,11,2,11,0.00
2013-4-13,74,60,40,31,23,13,55,27,11,29.89,29.68,16,3,16,0.00
2013-4-14,77,65,33,33,23,18,100,21,11,29.90,29.62,22,7,22,14.57
2013-4-15,81,64,48,26,20,9,36,20,7,29.77,29.60,18,4,18,0.00
2013-4-16,80,66,53,26,16,2,28,16,5,29.82,29.65,21,5,21,0.00
2013-4-17,60,52,39,28,18,8,42,28,15,29.92,29.67,33,5,33,0.00
2013-4-18,50,40,30,16,4,-4,40,24,12,30.12,29.92,20,6,20,0.00
2013-4-19,68,46,28,8,2,-4,30,17,7,30.20,29.94,9,2,9,0.00
2013-4-20,70,56,44,20,7,-8,26,14,10,29.99,29.83,20,4,20,0.00
2013-4-21,76,57,40,24,17,2,44,23,6,30.09,29.93,13,2,13,0.00
2013-4-22,82,66,48,19,15,7,29,16,6,29.99,29.78,17,4,17,0.00
2013-4-23,68,58,43,30,16,-13,46,22,6,30.04,29.83,19,4,19,0.00
2013-4-24,74,51,29,21,17,11,58,30,11,30.11,29.97,8,1,8,0.00
2013-4-25,76,61,48,30,24,14,38,26,12,30.06,29.83,18,4,18,0.00
2013-4-26,77,61,46,30,20,-2,50,25,5,30.14,29.98,13,2,13,0.00
2013-4-27,80,63,43,32,15,-9,49,21,3,30.17,30.01,10,2,10,0.00
2013-4-28,83,65,44,19,7,-8,27,12,3,30.05,29.87,11,2,11,0.00
2013-5-1,83,71,33,33,16,3,100,14,6,30.13,29.88,15,5,15,0.00
2013-5-2,64,50,38,28,18,11,56,30,13,30.36,30.12,17,4,17,0.00
2013-5-3,71,52,33,16,13,8,42,23,10,30.29,29.95,11,2,11,0.00
2013-5-4,79,62,43,18,10,5,29,14,6,29.98,29.85,24,6,24,0.00
2013-5-5,72,61,51,32,19,8,30,20,12,30.08,29.95,27,9,27,0.00
2013-5-6,71,62,55,39,26,17,46,27,18,30.00,29.91,17,4,17,0.00
2013-5-7,76,63,47,38,30,22,58,31,15,30.01,29.85,12,2,12,0.00
2013-5-8,72,61,47,35,25,15,53,28,12,30.00,29.89,16,3,16,0.00
2013-5-9,73,61,46,36,24,18,46,26,15,30.08,29.93,13,2,13,0.00
2013-5-10,68,58,50,41,36,32,66,44,27,30.22,30.04,15,2,15,0.04
2013-5-11,72,58,42,43,36,27,82,48,22,30.25,30.19,14,2,14,0.00
2013-5-12,80,64,44,39,32,24,64,34,13,30.25,30.09,18,1,18,0.01
2013-5-13,85,70,57,33,29,26,36,23,13,30.22,30.06,10,1,10,0.00
2013-5-14,86,71,33,44,25,15,100,19,11,30.22,29.90,22,2,22,14.63
2013-5-15,87,72,60,43,36,23,50,29,12,30.00,29.84,12,2,12,0.01
2013-5-16,86,73,58,28,20,7,28,15,5,30.00,29.85,12,2,12,0.01
2013-5-17,88,72,54,29,21,12,32,16,7,30.01,29.84,23,2,23,0.01
2013-5-18,77,70,57,30,21,12,28,16,11,29.99,29.81,20,3,20,0.01
2013-5-19,74,65,56,36,30,18,44,28,13,29.95,29.85,16,4,16,0.01
2013-5-20,70,61,55,32,30,23,40,31,17,29.97,29.85,19,6,19,14.64
2013-5-21,81,64,46,35,29,20,55,30,11,30.02,29.85,11,2,11,0.00
2013-5-22,87,71,52,31,21,10,40,18,6,29.94,29.80,10,1,10,0.00
2013-5-23,90,77,57,46,20,7,37,14,6,29.98,29.84,14,2,14,0.00
2013-5-24,88,75,62,45,32,18,45,23,8,30.08,29.91,9,2,9,0.00
2013-5-25,92,76,56,40,21,6,27,15,5,30.06,29.87,11,2,11,0.00
2013-5-26,89,75,56,31,15,-5,25,12,3,30.05,29.88,10,2,10,0.00
2013-5-27,86,71,56,23,14,4,23,12,5,30.01,29.84,13,2,13,0.00
2013-5-28,85,72,54,27,15,-6,30,13,5,29.88,29.66,9,2,9,0.00
2013-5-29,81,71,59,38,23,6,37,18,6,29.78,29.67,17,3,17,0.00
2013-5-30,88,73,52,30,22,16,30,16,8,29.91,29.78,18,2,18,0.00
2013-5-31,86,75,61,39,26,3,38,18,7,29.98,29.87,18,5,18,0.01
2013-6-1,89,72,51,31,10,-12,24,11,2,30.07,29.96,20,3,20,0.00
2013-6-2,88,74,33,43,35,29,100,24,18,30.12,29.88,18,5,19,14.65
2013-6-3,91,77,64,49,36,10,51,28,6,30.01,29.83,13,2,13,0.00
2013-6-4,94,79,60,31,20,0,25,12,3,30.01,29.87,11,2,11,0.00
2013-6-5,81,81,80,30,28,25,16,15,13,29.94,29.93,11,6,11,0.00
2013-6-17,75,68,33,48,45,33,100,49,38,30.20,29.98,20,10,20,14.72
2013-6-18,136,78,25,52,41,-27,60,34,1,30.12,29.89,19,6,19,0.00
2013-6-19,134,82,-39,51,22,-35,38,15,1,29.98,29.81,5,5,5,0.00
2013-6-20,101,82,61,32,14,-21,23,10,1,30.02,29.85,9,4,10,0.00
2013-6-21,98,82,65,49,22,-7,42,15,2,30.12,29.93,15,2,15,0.00
2013-6-22,95,81,64,29,19,2,19,11,3,30.09,29.92,12,2,12,0.00
2013-6-23,96,81,64,24,17,10,17,10,5,30.07,29.89,10,2,10,0.00
2013-6-24,96,82,66,32,18,-2,22,11,3,30.07,29.93,16,2,16,0.00
2013-6-25,98,82,62,32,24,16,26,13,6,30.13,30.01,8,2,8,0.00
2013-6-26,102,84,64,33,28,22,31,15,7,30.17,30.05,10,2,10,0.00
2013-6-27,109,89,67,37,30,21,30,14,5,30.20,30.08,20,2,20,0.00
2013-6-28,97,87,74,52,44,32,46,24,13,30.27,30.14,24,5,24,0.00
2013-6-29,99,83,67,52,45,38,51,29,13,30.21,30.05,23,3,23,0.00
2013-6-30,99,81,68,53,48,38,53,32,13,30.22,30.01,19,3,19,0.00
2013-7-1,90,74,62,57,52,45,75,48,25,30.26,30.11,19,4,19,0.02
2013-7-2,88,74,63,55,49,44,61,41,24,30.26,30.06,13,3,13,0.00
2013-7-3,91,73,56,63,53,45,87,54,23,30.23,29.97,16,2,16,0.15
2013-7-4,95,78,63,59,52,44,85,42,21,30.07,29.96,24,2,24,0.32
2013-7-5,94,79,68,64,55,49,82,46,24,30.08,29.92,15,1,15,0.24
2013-7-6,98,78,65,63,56,46,86,52,19,30.12,29.94,21,3,21,0.10
2013-7-7,97,81,64,63,56,46,82,46,19,30.12,30.00,12,2,12,0.01
2013-7-8,95,82,70,61,55,50,73,42,25,30.25,30.10,16,3,16,0.00
2013-7-9,85,70,33,61,58,33,100,66,30,30.31,30.10,11,1,11,0.85
2013-7-10,98,85,72,60,54,48,59,36,20,30.21,30.07,12,2,12,0.00
2013-7-11,93,80,70,61,57,52,68,47,30,30.23,30.04,10,2,10,0.00
2013-7-12,94,81,68,61,56,50,69,45,25,30.15,30.03,13,2,13,0.00
2013-7-13,97,82,69,62,55,48,70,42,21,30.17,30.05,14,2,14,0.01
2013-7-14,101,83,70,60,55,49,68,40,19,30.15,29.97,20,3,20,0.31
2013-7-15,76,70,33,56,53,33,100,54,48,30.35,30.11,11,3,11,1.20
2013-7-16,83,70,64,52,49,46,57,47,31,30.25,30.13,15,3,15,0.31
2013-7-17,83,72,59,57,52,48,80,53,32,30.31,30.20,10,3,10,0.31
2013-7-18,86,74,61,57,54,50,73,50,35,30.28,30.12,12,2,12,0.31
2013-7-19,87,73,59,65,60,54,89,66,38,30.20,30.04,24,2,24,0.69
2013-7-20,92,76,66,66,59,53,84,58,33,30.12,29.98,10,2,10,0.31
2013-7-21,93,78,68,60,56,49,71,50,26,30.11,29.99,12,2,12,0.31
2013-7-22,100,80,66,59,53,42,69,42,15,30.11,29.99,9,1,9,0.31
2013-7-23,99,83,67,57,52,44,61,36,20,30.12,29.99,14,2,14,0.31
2013-7-24,92,77,68,60,54,48,69,46,29,30.20,30.08,13,2,13,0.31
2013-7-25,88,75,66,60,58,56,75,57,37,30.23,30.10,10,2,10,0.31
2013-7-26,90,74,63,68,60,51,92,65,35,30.31,30.15,22,3,22,1.06
2013-7-27,86,74,61,60,57,51,86,57,36,30.30,30.07,10,2,10,0.31
2013-7-28,90,76,68,63,58,51,72,56,30,30.10,29.98,16,2,16,0.31
2013-7-29,92,78,63,62,54,45,84,48,21,30.17,30.07,16,2,16,0.31
2013-7-30,76,75,73,48,48,47,41,38,37,30.17,30.17,3,1,3,0.00
2013-8-7,83,74,33,56,53,33,100,50,37,30.26,30.04,11,4,11,3.23
2013-8-8,88,75,62,58,51,42,74,47,22,30.12,30.04,14,3,14,0.00
2013-8-9,92,76,59,52,47,38,65,39,17,30.22,30.11,9,2,9,0.00
2013-8-10,85,72,62,56,51,45,73,49,32,30.31,30.18,15,3,15,0.02
2013-8-11,87,71,60,57,54,49,87,59,29,30.33,30.13,10,2,10,0.03
2013-8-12,86,74,67,59,55,50,74,53,33,30.25,30.13,11,2,11,0.00
2013-8-13,92,77,63,58,51,42,70,42,22,30.22,30.12,8,1,8,0.00
2013-8-14,91,77,62,59,51,41,72,43,18,30.23,30.10,20,2,20,0.00
2013-8-15,95,78,62,58,50,39,70,40,16,30.23,30.10,11,1,11,0.00
2013-8-16,98,82,68,53,46,34,52,31,12,30.23,30.10,13,2,13,0.00
2013-8-17,96,84,72,56,46,40,50,29,15,30.23,30.07,10,2,10,0.01
2013-8-18,96,82,69,54,50,44,55,35,19,30.21,30.08,8,2,8,0.00
2013-8-19,96,80,33,57,52,33,100,39,21,30.27,30.06,11,3,11,3.29
2013-8-20,95,76,63,63,56,53,76,54,25,30.21,30.05,7,1,7,0.03
2013-8-21,89,78,64,61,54,48,75,46,28,30.17,30.07,7,1,7,0.00
2013-8-22,94,81,66,55,48,38,51,33,23,30.21,30.07,10,2,10,0.00
2013-8-23,87,77,61,52,46,35,53,35,22,30.18,30.05,10,2,10,0.00
2013-8-24,86,76,69,58,53,46,65,45,33,30.21,30.10,8,2,8,0.00
2013-8-25,84,73,67,62,58,54,78,61,39,30.25,30.17,8,1,8,0.10
2013-8-26,92,77,64,63,56,48,85,51,29,30.27,30.14,7,1,7,0.05
2013-8-27,92,78,62,60,52,44,73,42,25,30.21,30.07,9,2,9,0.00
2013-8-28,88,78,69,57,53,48,57,43,30,30.22,30.12,12,2,12,0.00
2013-8-29,88,77,70,59,55,52,59,48,31,30.26,30.17,11,2,11,0.00
2013-8-30,95,80,66,62,56,44,77,46,19,30.23,30.09,10,1,10,0.00
2013-8-31,98,82,67,60,52,44,68,38,19,30.16,30.01,8,1,8,0.00
2013-9-1,94,78,68,60,52,44,76,42,23,30.20,30.04,16,2,16,0.06
2013-9-2,90,78,66,61,56,51,77,49,27,30.22,30.09,6,2,6,0.00
2013-9-3,94,76,66,61,56,50,71,52,24,30.21,30.09,20,1,20,0.23
2013-9-4,96,80,68,58,48,36,70,36,15,30.26,30.14,11,2,11,0.00
2013-9-5,93,80,62,50,42,36,56,29,17,30.27,30.16,6,2,6,0.00
2013-9-6,77,72,65,42,38,36,43,30,23,30.23,30.21,7,1,7,0.00
2013-9-9,80,74,33,55,51,33,100,46,31,30.17,29.96,9,3,9,3.77
2013-9-10,74,67,33,62,56,33,100,68,55,30.31,30.03,8,1,8,4.46
2013-9-11,88,70,62,66,58,50,93,71,33,30.16,30.07,12,2,12,0.16
2013-9-12,73,65,60,66,59,55,92,81,67,30.17,30.07,8,2,8,1.12
2013-9-13,73,64,59,61,59,56,93,84,61,30.13,30.03,7,1,7,0.25
2013-9-14,74,65,58,60,57,53,93,77,54,30.09,30.00,7,1,7,0.61
2013-9-15,85,67,57,64,56,50,93,70,33,30.14,30.06,10,2,10,0.43
2013-9-16,70,67,33,55,54,33,100,63,58,30.36,30.15,2,0,2,6.89
2013-9-17,84,70,59,62,56,52,85,61,37,30.17,30.01,8,1,8,0.43
2013-9-18,82,73,65,60,57,50,76,58,35,30.08,29.96,10,2,10,0.43
2013-9-19,85,71,60,62,54,42,90,58,29,30.07,29.98,8,1,8,0.43
2013-9-20,62,62,62,46,46,46,56,56,56,30.04,30.04,0,0,0,0.07
2013-9-21,82,73,33,57,53,33,100,51,33,30.34,29.98,10,2,10,6.96
2013-9-22,81,67,58,56,52,43,89,60,30,30.01,29.75,24,3,24,0.33
2013-9-23,74,60,47,46,37,34,73,45,24,30.12,29.89,12,3,12,7.28
2013-9-24,79,63,46,45,41,33,78,48,29,30.28,30.05,6,1,6,7.28
2013-9-25,84,70,56,46,41,35,55,36,24,30.04,29.83,9,2,9,0.00
2013-9-26,83,72,56,44,40,35,52,32,21,29.94,29.83,14,3,14,0.00
2013-9-27,73,62,51,50,42,31,59,46,38,30.08,29.88,14,4,14,0.00
2013-9-28,73,54,38,32,27,19,68,39,16,30.22,30.08,8,1,8,0.00
2013-9-29,80,59,40,36,29,23,66,36,15,30.23,30.07,7,1,7,0.00
2013-9-30,84,65,48,39,30,26,52,29,13,30.10,29.96,8,2,8,0.00
2013-10-1,86,66,47,36,29,16,55,28,8,30.09,29.99,8,1,8,0.00
2013-10-2,82,65,50,37,30,20,50,29,14,30.10,29.97,7,1,7,0.00
2013-10-3,80,66,33,39,33,27,100,31,16,30.05,29.83,12,1,12,7.28
2013-10-4,62,56,49,35,22,10,46,28,15,30.15,29.90,19,5,19,0.00
2013-10-5,62,50,38,24,20,15,54,32,18,30.26,30.14,14,4,14,0.00
2013-10-6,73,53,38,27,23,20,54,33,16,30.31,30.20,6,1,6,0.00
2013-10-7,76,58,40,29,26,22,62,33,15,30.27,30.11,6,1,6,0.00
2013-10-8,78,65,54,34,30,25,38,27,17,30.11,29.91,8,1,8,0.00
2013-10-9,75,64,48,39,34,26,57,34,19,30.00,29.90,9,2,9,0.00
2013-10-10,71,59,44,48,36,28,76,44,26,30.02,29.81,22,4,22,0.04
2013-10-11,63,45,33,34,31,29,100,59,31,30.25,30.00,12,1,12,7.32
2013-10-12,70,55,36,40,34,29,81,49,26,30.17,30.05,9,2,9,0.00
2013-10-13,77,64,33,42,37,33,100,38,24,30.19,29.98,11,3,11,7.32
2013-10-15,64,55,33,33,30,24,100,40,31,30.29,29.96,20,6,20,7.32
2013-10-16,59,50,33,35,29,14,100,48,21,30.27,30.02,15,5,15,7.32
2013-10-17,64,48,34,27,22,16,61,37,19,30.15,29.98,8,1,8,0.00
2013-10-18,63,50,36,24,19,15,59,31,17,30.16,29.98,17,3,17,0.00
2013-10-19,64,48,31,30,22,17,76,41,19,30.20,30.05,9,1,9,0.00
2013-10-20,72,55,33,33,20,13,100,27,12,30.17,29.91,14,2,14,7.32
2013-10-21,66,53,40,33,28,18,61,38,23,30.18,30.00,7,1,7,0.00
2013-10-22,71,53,36,33,25,18,70,37,15,30.26,30.15,6,1,6,0.00
2013-10-23,72,55,38,36,27,21,62,36,19,30.22,30.10,6,1,6,0.00
2013-10-24,75,58,42,48,32,24,81,41,21,30.24,30.09,14,2,14,0.03
2013-10-25,66,54,46,52,44,38,90,70,45,30.25,30.12,12,2,12,0.11
2013-10-26,66,53,33,46,39,33,100,62,38,30.48,30.18,6,1,6,7.46
2013-10-27,70,55,40,41,36,33,82,53,27,30.22,29.97,6,1,6,0.00
2013-11-3,54,51,33,35,33,33,100,51,45,30.08,29.87,2,0,2,7.46
2013-11-4,68,55,42,44,36,33,73,50,32,29.98,29.84,9,2,9,0.00
2013-11-5,56,46,33,44,38,17,100,75,41,30.29,29.85,13,3,13,7.70
2013-11-6,55,41,26,24,16,9,67,40,18,30.37,30.22,12,3,12,0.24
2013-11-7,64,45,29,26,21,15,76,41,21,30.41,30.23,7,1,7,0.24
2013-11-8,67,49,35,28,23,16,56,37,22,30.24,30.05,5,1,5,0.24
2013-11-9,73,51,35,32,26,23,67,40,17,30.21,30.10,5,1,5,0.24
2013-11-10,70,51,35,31,26,23,65,40,19,30.29,30.19,4,1,4,0.24
2013-11-11,72,52,36,32,26,20,69,38,16,30.32,30.21,8,1,8,0.24
2013-11-12,62,47,37,36,31,22,74,53,35,30.49,30.32,7,1,7,0.24
2013-11-13,58,44,31,40,34,26,86,69,50,30.44,30.14,6,1,6,0.24
2013-11-14,66,49,40,43,36,28,83,63,32,30.14,29.96,9,1,9,0.24
2013-11-15,61,48,36,45,35,27,89,61,37,29.97,29.75,13,2,13,0.24
2013-11-16,63,51,45,43,37,28,88,62,37,29.91,29.72,9,1,9,0.24
2013-11-17,60,50,37,34,32,28,77,51,35,30.11,29.90,12,3,12,0.24
2013-11-20,45,44,33,41,40,33,100,87,85,30.15,29.94,4,0,4,8.06
2013-11-21,59,45,33,42,40,33,100,83,57,30.24,29.96,8,1,8,0.01
2013-11-22,44,38,35,38,30,27,85,72,62,30.23,30.02,17,4,17,0.01
2013-11-23,41,36,30,31,26,18,90,69,51,30.27,30.14,16,4,16,0.01
2013-11-24,33,29,25,25,23,18,87,77,67,30.21,30.01,10,2,10,0.01
2013-11-25,51,35,27,32,27,24,90,75,45,30.21,29.97,9,2,9,0.01
2013-11-26,54,36,26,33,27,22,89,70,40,30.30,30.21,7,1,7,0.01
2013-11-27,48,37,26,32,26,22,88,68,46,30.27,30.11,7,1,7,0.01
2013-11-28,59,38,26,31,25,21,85,63,31,30.19,30.09,6,1,6,0.01
2013-11-29,60,41,27,32,28,22,83,62,33,30.25,30.15,5,1,5,0.01
2013-11-30,61,42,30,34,30,26,87,65,35,30.23,30.12,5,1,5,0.01
2013-12-1,51,41,34,33,30,26,83,67,48,30.22,30.13,14,4,14,0.01
2013-12-2,55,43,29,31,28,23,79,56,38,30.06,29.84,10,2,10,0.00
2013-12-3,68,50,36,27,21,14,61,34,13,29.84,29.63,11,2,11,0.00
2013-12-4,60,48,37,31,24,17,67,41,22,29.83,29.61,25,6,25,0.00
2013-12-5,38,29,15,31,24,11,90,83,54,29.90,29.77,7,1,7,0.00
2013-12-6,42,24,13,24,15,10,90,69,32,30.04,29.89,4,0,4,0.00
2013-12-7,34,26,15,30,21,10,89,81,70,30.00,29.77,8,1,8,0.00
2013-12-8,36,30,26,27,18,11,84,60,46,29.91,29.74,14,4,14,0.00
2013-12-9,30,25,14,17,9,0,68,51,31,30.29,29.90,17,5,17,0.00
2013-12-10,40,23,10,10,5,1,70,48,26,30.32,30.12,14,2,14,0.00
2013-12-11,47,28,16,19,13,6,75,54,29,30.34,30.15,7,1,7,0.00
2013-12-12,44,31,20,23,19,14,81,61,41,30.33,30.04,5,1,5,0.00
2013-12-13,47,37,33,34,27,20,89,67,51,30.04,29.91,15,3,15,0.00
2013-12-14,50,36,26,22,19,17,74,53,30,30.28,30.03,14,3,14,0.00
2013-12-15,50,37,27,22,19,16,65,48,32,30.29,30.18,15,4,15,0.00
2013-12-17,53,42,33,33,23,21,100,47,30,30.42,30.20,4,1,4,0.00
2013-12-18,57,41,28,28,23,19,74,51,28,30.19,29.88,5,1,5,0.00
2013-12-19,63,47,34,27,23,17,65,40,24,29.89,29.69,5,1,5,0.00
2013-12-20,57,43,32,33,25,19,73,51,29,29.77,29.62,8,1,8,0.00
2013-12-21,41,37,34,33,28,24,92,71,55,29.80,29.56,16,4,16,0.00
2013-12-22,36,33,30,24,22,20,68,64,61,29.98,29.80,13,4,13,0.00
2013-12-23,38,36,33,33,21,19,100,54,47,30.49,30.27,5,2,5,0.01
2013-12-24,56,38,27,33,22,18,100,53,30,30.44,30.09,11,2,11,0.01
2013-12-25,51,36,24,23,18,12,79,51,25,30.30,30.18,7,1,7,0.00
2013-12-26,59,35,22,24,17,12,73,48,21,30.27,30.14,5,1,5,0.00
2013-12-27,59,37,22,22,18,14,75,49,21,30.26,30.13,4,1,4,0.00
2013-12-28,52,37,25,22,18,14,69,48,25,30.13,29.88,7,1,7,0.00
2013-12-29,49,39,31,25,22,20,70,51,37,30.11,29.90,6,1,6,0.00
2013-12-30,52,39,29,20,14,9,59,38,21,30.23,30.09,12,2,12,0.00
2013-12-31,55,38,25,21,17,14,68,45,23,30.23,30.06,8,1,8,0.00
2014-1-1,56,41,28,25,19,17,66,43,22,30.20,30.02,15,3,15,0.00
2014-1-2,54,38,23,26,16,9,77,45,17,30.27,30.13,6,1,6,0.00